Time;durP1;ratioP1;P1;durP2;ratioP2;P2;SDS_P1;SDS_P2;PMS_P1;PMS_P2;Temp;Humidity;BMP_temperature;BMP_pressure;BME280_temperature;BME280_humidity;BME280_pressure;Samples;Min_cycle;Max_cycle;Signal;HPM_P1;HPM_P2
2023/03/11 00:00:26;;;;;;;17.27;10.57;;;;;;;11.48;100.00;98657.03;5054055;28;20029;-77
2023/03/11 00:02:54;;;;;;;17.80;10.50;;;;;;;11.59;100.00;98651.38;5053695;28;20029;-76
2023/03/11 00:05:29;;;;;;;12.45;10.00;;;;;;;11.74;100.00;98643.75;5053562;28;20090;-78
2023/03/11 00:07:55;;;;;;;17.80;10.52;;;;;;;11.50;100.00;98583.13;5053933;28;20072;-79
2023/03/11 00:10:27;;;;;;;16.00;9.52;;;;;;;11.81;100.00;98624.69;5052933;28;20083;-78
2023/03/11 00:12:52;;;;;;;18.52;9.60;;;;;;;11.59;100.00;98563.09;5054524;28;20029;-77
2023/03/11 00:15:19;;;;;;;17.70;9.10;;;;;;;11.86;100.00;98602.34;5054148;28;20036;-78
2023/03/11 00:17:46;;;;;;;17.65;10.60;;;;;;;11.48;100.00;98580.69;5053271;28;20037;-77
2023/03/11 00:20:24;;;;;;;20.00;13.43;;;;;;;11.48;100.00;98580.69;5053819;28;20041;-78
2023/03/11 00:22:52;;;;;;;20.83;13.63;;;;;;;11.20;100.00;98588.97;5053601;28;20037;-77
2023/03/11 00:25:19;;;;;;;17.27;10.88;;;;;;;11.42;100.00;98575.91;5052008;28;20087;-78
2023/03/11 00:27:44;;;;;;;15.98;11.15;;;;;;;11.08;100.00;98565.91;5052839;28;20040;-78
2023/03/11 00:30:11;;;;;;;17.17;10.85;;;;;;;11.24;100.00;98549.75;5053483;28;20028;-78
2023/03/11 00:32:40;;;;;;;21.88;11.75;;;;;;;11.00;100.00;98557.84;5052553;28;20033;-77
2023/03/11 00:35:06;;;;;;;17.45;10.57;;;;;;;10.97;100.00;98502.88;5053553;28;20533;-77
2023/03/11 00:37:32;;;;;;;16.30;11.15;;;;;;;10.96;100.00;98491.09;5052219;28;20025;-77
2023/03/11 00:39:58;;;;;;;16.30;10.48;;;;;;;11.24;100.00;98541.28;5053434;28;20063;-77
2023/03/11 00:42:23;;;;;;;15.70;11.00;;;;;;;10.91;100.00;98490.53;5052702;28;20037;-77
2023/03/11 00:44:49;;;;;;;18.38;9.60;;;;;;;11.59;100.00;98471.47;5053518;28;20037;-78
2023/03/11 00:47:14;;;;;;;17.48;9.82;;;;;;;11.74;100.00;98519.00;5053340;28;20040;-77
2023/03/11 00:49:40;;;;;;;17.40;9.43;;;;;;;11.94;100.00;98495.75;5052638;28;20151;-78
2023/03/11 00:52:05;;;;;;;17.45;9.60;;;;;;;12.29;100.00;98508.19;5052399;28;20529;-78
2023/03/11 00:54:31;;;;;;;20.50;10.48;;;;;;;12.27;100.00;98500.66;5051929;28;20476;-78
2023/03/11 00:56:56;;;;;;;19.13;9.70;;;;;;;11.98;100.00;98446.28;5051711;28;20408;-77
2023/03/11 00:59:22;;;;;;;21.00;10.15;;;;;;;12.04;100.00;98453.56;5053016;28;20036;-78
2023/03/11 01:01:47;;;;;;;15.77;9.25;;;;;;;12.37;100.00;98490.72;5052328;28;20407;-78
2023/03/11 01:04:14;;;;;;;17.88;9.70;;;;;;;12.29;100.00;98475.06;5054158;28;20506;-77
2023/03/11 01:06:39;;;;;;;18.63;9.48;;;;;;;12.33;100.00;98456.13;5051701;28;20126;-78
2023/03/11 01:09:05;;;;;;;18.23;8.32;;;;;;;11.73;100.00;98373.97;5053296;28;20526;-77
2023/03/11 01:11:30;;;;;;;19.92;9.10;;;;;;;12.44;100.00;98458.88;5052571;28;20040;-76
2023/03/11 01:13:56;;;;;;;16.52;8.60;;;;;;;12.08;100.00;98399.00;5059329;28;20058;-76
2023/03/11 01:16:22;;;;;;;17.45;8.80;;;;;;;12.39;100.00;98438.75;5071882;28;20410;-77
2023/03/11 01:18:48;;;;;;;17.17;9.13;;;;;;;12.07;100.00;98415.22;5072603;28;20068;-77
2023/03/11 01:21:13;;;;;;;22.20;9.38;;;;;;;12.24;100.00;98441.41;5072738;28;20068;-78
2023/03/11 01:23:40;;;;;;;18.42;9.73;;;;;;;12.31;100.00;98435.03;5073152;28;20060;-78
2023/03/11 01:26:06;;;;;;;17.10;10.15;;;;;;;12.01;100.00;98428.31;5073544;28;20643;-77
2023/03/11 01:28:32;;;;;;;18.95;10.80;;;;;;;11.82;100.00;98406.56;5071708;28;20452;-77
2023/03/11 01:30:57;;;;;;;23.63;11.27;;;;;;;11.76;100.00;98407.75;5071739;28;20107;-77
2023/03/11 01:33:23;;;;;;;19.00;10.95;;;;;;;11.72;100.00;98402.91;5071071;28;20482;-77
2023/03/11 01:35:48;;;;;;;17.90;11.10;;;;;;;11.56;100.00;98354.59;5071322;28;20032;-77
2023/03/11 01:38:14;;;;;;;20.90;11.48;;;;;;;11.31;100.00;98359.44;5071985;28;20035;-77
2023/03/11 01:40:43;;;;;;;20.35;11.98;;;;;;;11.50;100.00;98356.66;5072534;28;20032;-77
2023/03/11 01:43:40;;;;;;;18.75;11.60;;;;;;;11.79;100.00;98399.06;5071296;28;20057;-78
2023/03/11 01:46:19;;;;;;;20.65;10.82;;;;;;;11.73;100.00;98390.09;5072557;28;20074;-77
2023/03/11 01:48:58;;;;;;;22.45;11.00;;;;;;;11.74;100.00;98389.19;5072042;28;20135;-77
2023/03/11 01:51:29;;;;;;;17.42;10.27;;;;;;;11.59;100.00;98335.78;5072517;28;20449;-78
2023/03/11 01:53:58;;;;;;;18.45;9.82;;;;;;;11.88;100.00;98356.09;5071789;28;20025;-78
2023/03/11 01:56:24;;;;;;;16.35;10.18;;;;;;;11.94;100.00;98365.91;5070657;28;20219;-78
2023/03/11 01:58:52;;;;;;;16.27;9.25;;;;;;;12.14;100.00;98370.63;5072626;28;20640;-78
2023/03/11 02:01:19;;;;;;;15.45;9.60;;;;;;;12.18;100.00;98356.78;5070727;28;20028;-77
2023/03/11 02:03:45;;;;;;;21.80;9.63;;;;;;;12.12;100.00;98341.06;5071153;28;20082;-77
2023/03/11 02:06:17;;;;;;;20.80;9.98;;;;;;;12.08;100.00;98326.88;5071146;28;20029;-78
2023/03/11 02:08:43;;;;;;;15.77;10.60;;;;;;;11.68;100.00;98247.00;5072208;28;20039;-77
2023/03/11 02:11:14;;;;;;;22.23;10.45;;;;;;;12.28;100.00;98333.31;5071899;28;20093;-78
2023/03/11 02:13:42;;;;;;;20.33;9.80;;;;;;;12.41;100.00;98339.28;5071408;28;20037;-78
2023/03/11 02:16:08;;;;;;;20.80;9.68;;;;;;;12.50;100.00;98333.63;5071872;28;20036;-77
2023/03/11 02:18:33;;;;;;;17.98;9.43;;;;;;;12.23;100.00;98274.16;5070368;28;20060;-78
2023/03/11 02:21:11;;;;;;;23.65;10.65;;;;;;;12.75;100.00;98349.03;5071130;28;20083;-79
2023/03/11 02:23:58;;;;;;;24.50;9.75;;;;;;;12.27;100.00;98304.47;5072119;28;20124;-78
2023/03/11 02:26:29;;;;;;;23.65;10.20;;;;;;;12.58;100.00;98361.97;5070658;28;20140;-79
2023/03/11 02:28:57;;;;;;;20.70;9.60;;;;;;;12.48;100.00;98354.09;5072060;28;20041;-78
2023/03/11 02:31:22;;;;;;;21.42;9.48;;;;;;;12.31;100.00;98315.28;5071342;28;20111;-77
2023/03/11 02:33:51;;;;;;;16.85;9.35;;;;;;;12.40;100.00;98312.19;5071575;28;20522;-77
2023/03/11 02:36:38;;;;;;;17.58;8.43;;;;;;;12.83;100.00;98362.09;5071461;28;20033;-82
2023/03/11 02:39:05;;;;;;;16.00;7.68;;;;;;;12.36;100.00;98315.81;5068030;28;20055;-76
2023/03/11 02:41:33;;;;;;;17.40;8.98;;;;;;;12.73;100.00;98368.69;5065954;28;20021;-79
2023/03/11 02:44:01;;;;;;;17.05;8.25;;;;;;;12.57;100.00;98322.13;5050154;28;20047;-79
2023/03/11 02:46:27;;;;;;;19.60;8.10;;;;;;;12.57;100.00;98314.47;5031664;28;20055;-79
2023/03/11 02:48:54;;;;;;;19.52;8.43;;;;;;;12.76;100.00;98355.75;5031244;28;20029;-79
2023/03/11 02:51:20;;;;;;;21.92;8.82;;;;;;;12.47;100.00;98318.50;5030759;28;20049;-79
2023/03/11 02:53:50;;;;;;;19.33;8.52;;;;;;;12.62;100.00;98355.78;5032354;28;20029;-79
2023/03/11 02:56:16;;;;;;;17.90;8.40;;;;;;;12.64;100.00;98348.84;5031920;28;20045;-80
2023/03/11 02:58:41;;;;;;;18.55;8.23;;;;;;;12.69;100.00;98354.50;5031977;28;20128;-79
2023/03/11 03:01:06;;;;;;;18.13;8.98;;;;;;;12.29;100.00;98291.63;5031312;28;20488;-78
2023/03/11 03:03:32;;;;;;;17.33;9.07;;;;;;;12.55;100.00;98362.19;5035766;28;20029;-79
2023/03/11 03:05:57;;;;;;;16.25;8.50;;;;;;;12.46;100.00;98332.19;5035380;28;20041;-79
2023/03/11 03:08:23;;;;;;;20.88;8.77;;;;;;;12.26;100.00;98317.31;5034664;28;20043;-80
2023/03/11 03:10:48;;;;;;;21.27;10.20;;;;;;;12.49;100.00;98354.91;5034572;28;20025;-80
2023/03/11 03:13:14;;;;;;;19.85;9.65;;;;;;;12.38;100.00;98360.66;5035367;28;20033;-81
2023/03/11 03:15:39;;;;;;;18.35;11.02;;;;;;;12.05;100.00;98306.69;5054740;28;20048;-80
2023/03/11 03:18:04;;;;;;;21.88;10.70;;;;;;;12.77;100.00;98363.31;5054400;28;20025;-80
2023/03/11 03:20:30;;;;;;;18.73;10.40;;;;;;;12.88;100.00;98368.53;5054465;28;20025;-80
2023/03/11 03:22:56;;;;;;;19.45;10.57;;;;;;;12.71;100.00;98373.06;5046069;28;20030;-79
2023/03/11 03:25:21;;;;;;;20.23;10.10;;;;;;;12.35;100.00;98340.47;5034727;28;20582;-77
2023/03/11 03:27:47;;;;;;;20.92;9.80;;;;;;;12.81;100.00;98402.19;5034766;28;20128;-77
2023/03/11 03:30:12;;;;;;;23.13;9.80;;;;;;;12.42;100.00;98320.53;5044904;28;20021;-77
2023/03/11 03:32:38;;;;;;;21.80;10.30;;;;;;;12.90;100.00;98406.69;5054647;28;20033;-78
2023/03/11 03:35:05;;;;;;;25.75;11.98;;;;;;;13.02;100.00;98408.47;5053529;28;20066;-77
2023/03/11 03:37:33;;;;;;;22.25;12.18;;;;;;;12.76;100.00;98373.59;5055419;28;20017;-77
2023/03/11 03:39:58;;;;;;;16.60;10.65;;;;;;;12.65;100.00;98387.03;5055089;28;20029;-77
2023/03/11 03:42:24;;;;;;;18.73;10.63;;;;;;;12.39;100.00;98336.00;5054950;28;20029;-77
2023/03/11 03:44:51;;;;;;;26.42;11.30;;;;;;;12.91;100.00;98423.66;5054915;28;20584;-78
2023/03/11 03:47:18;;;;;;;18.42;9.93;;;;;;;12.90;100.00;98420.28;5050694;28;20018;-77
2023/03/11 03:49:43;;;;;;;19.67;10.25;;;;;;;12.96;100.00;98434.38;5053472;28;20209;-85
2023/03/11 03:52:09;;;;;;;24.10;9.75;;;;;;;13.09;100.00;98448.03;5054445;28;20112;-78
2023/03/11 03:54:35;;;;;;;24.17;11.25;;;;;;;12.93;100.00;98439.69;5054642;28;20126;-76
2023/03/11 03:57:01;;;;;;;21.75;10.15;;;;;;;12.79;100.00;98411.66;5053071;28;20483;-78
2023/03/11 03:59:27;;;;;;;26.42;11.48;;;;;;;12.98;100.00;98399.38;5054097;28;20037;-78
2023/03/11 04:01:52;;;;;;;22.63;11.05;;;;;;;12.81;100.00;98402.19;5053610;28;20033;-79
2023/03/11 04:04:18;;;;;;;26.00;10.25;;;;;;;13.20;100.00;98449.91;5054077;28;20473;-77
2023/03/11 04:06:43;;;;;;;27.63;10.52;;;;;;;12.92;100.00;98403.16;5052534;28;20029;-78
2023/03/11 04:09:10;;;;;;;21.20;10.20;;;;;;;12.98;100.00;98412.13;5053355;28;20503;-77
2023/03/11 04:11:36;;;;;;;20.20;9.40;;;;;;;12.99;100.00;98418.88;5052465;28;20219;-77
2023/03/11 04:14:02;;;;;;;22.40;9.30;;;;;;;13.28;100.00;98466.38;5052807;28;20033;-80
2023/03/11 04:16:28;;;;;;;19.33;9.15;;;;;;;13.07;100.00;98455.78;5053077;28;20032;-77
2023/03/11 04:18:53;;;;;;;17.67;8.68;;;;;;;12.70;100.00;98392.63;5052468;28;20553;-78
2023/03/11 04:21:19;;;;;;;24.30;9.00;;;;;;;12.76;100.00;98399.09;5054122;28;20033;-75
2023/03/11 04:23:44;;;;;;;18.10;9.18;;;;;;;13.09;100.00;98439.56;5048757;28;20033;-76
2023/03/11 04:26:10;;;;;;;20.73;8.50;;;;;;;13.09;100.00;98434.47;5033821;28;20053;-76
2023/03/11 04:28:35;;;;;;;19.90;9.27;;;;;;;12.80;100.00;98387.78;5033193;28;20123;-76
2023/03/11 04:31:01;;;;;;;21.17;8.88;;;;;;;12.88;100.00;98413.63;5032964;28;20108;-77
2023/03/11 04:33:26;;;;;;;20.67;8.75;;;;;;;12.83;100.00;98419.03;5033168;28;20507;-78
2023/03/11 04:35:52;;;;;;;19.27;8.38;;;;;;;12.42;100.00;98353.66;5031811;28;20034;-77
2023/03/11 04:38:18;;;;;;;22.15;8.85;;;;;;;12.80;100.00;98413.28;5032511;28;20098;-77
2023/03/11 04:40:43;;;;;;;16.77;8.85;;;;;;;12.52;100.00;98367.50;5032581;28;20026;-77
2023/03/11 04:43:09;;;;;;;18.63;8.80;;;;;;;12.65;100.00;98419.34;5033927;28;20033;-77
2023/03/11 04:45:37;;;;;;;20.23;9.05;;;;;;;12.63;100.00;98423.72;5031898;28;20099;-79
2023/03/11 04:48:03;;;;;;;17.83;8.45;;;;;;;12.27;100.00;98367.34;5032982;28;20025;-75
2023/03/11 04:50:28;;;;;;;23.42;10.35;;;;;;;12.43;100.00;98411.34;5032877;28;20041;-75
2023/03/11 04:52:55;;;;;;;21.63;9.88;;;;;;;12.55;100.00;98390.22;5031662;28;20030;-76
2023/03/11 04:55:20;;;;;;;24.75;13.20;;;;;;;12.33;100.00;98346.56;5033381;28;20029;-75
2023/03/11 04:57:46;;;;;;;23.27;11.40;;;;;;;12.66;100.00;98439.63;5031161;28;20038;-77
2023/03/11 05:00:14;;;;;;;24.08;12.95;;;;;;;12.37;100.00;98387.06;5041902;28;20025;-76
2023/03/11 05:02:41;;;;;;;27.52;13.93;;;;;;;12.57;100.00;98413.88;5051716;28;20033;-74
2023/03/11 05:05:08;;;;;;;32.75;18.27;;;;;;;12.63;100.00;98393.13;5051892;28;20522;-75
2023/03/11 05:07:35;;;;;;;31.30;14.50;;;;;;;13.29;100.00;98446.78;5051455;28;20051;-75
2023/03/11 05:10:02;;;;;;;25.80;14.80;;;;;;;13.02;100.00;98413.59;5051469;28;20091;-76
2023/03/11 05:12:27;;;;;;;25.17;13.93;;;;;;;13.03;100.00;98449.22;5050887;28;20060;-75
2023/03/11 05:14:53;;;;;;;33.15;13.88;;;;;;;13.25;100.00;98442.78;5051330;28;20096;-74
2023/03/11 05:17:18;;;;;;;25.65;13.32;;;;;;;13.22;100.00;98446.34;5035848;28;20403;-74
2023/03/11 05:19:45;;;;;;;30.50;15.18;;;;;;;12.87;100.00;98386.50;5030962;28;20064;-76
2023/03/11 05:22:11;;;;;;;22.50;10.88;;;;;;;13.06;100.00;98399.75;5032418;28;20040;-75
2023/03/11 05:24:36;;;;;;;26.38;9.60;;;;;;;13.24;100.00;98429.19;5031864;28;20029;-75
2023/03/11 05:27:02;;;;;;;22.73;9.38;;;;;;;13.31;100.00;98430.44;5031849;28;20519;-75
2023/03/11 05:29:28;;;;;;;24.85;10.10;;;;;;;12.95;100.00;98374.09;5045823;28;20029;-75
2023/03/11 05:31:54;;;;;;;26.65;15.30;;;;;;;14.16;100.00;98373.72;5050367;28;20446;-75
2023/03/11 05:34:20;;;;;;;30.23;17.80;;;;;;;16.26;100.00;98382.97;5052175;28;20043;-74
2023/03/11 05:36:45;;;;;;;34.50;20.00;;;;;;;14.80;100.00;98427.16;5052551;28;20725;-75
2023/03/11 05:39:11;;;;;;;27.85;14.70;;;;;;;13.54;100.00;98381.28;5047992;28;20033;-75
2023/03/11 05:41:36;;;;;;;29.65;12.32;;;;;;;14.35;100.00;98410.72;5050745;28;20561;-76
2023/03/11 05:44:02;;;;;;;20.20;10.07;;;;;;;14.59;100.00;98352.75;5050009;28;20573;-72
2023/03/11 05:46:28;;;;;;;28.30;15.05;;;;;;;14.80;100.00;98396.47;5050343;28;20033;-73
2023/03/11 05:48:53;;;;;;;36.53;22.52;;;;;;;14.40;100.00;98406.09;5038743;28;20055;-75
2023/03/11 05:51:19;;;;;;;46.72;32.47;;;;;;;14.22;100.00;98402.19;5029986;28;20037;-76
2023/03/11 05:53:47;;;;;;;45.22;33.97;;;;;;;14.20;100.00;98398.13;5042114;28;20029;-74
2023/03/11 05:56:18;;;;;;;45.95;33.42;;;;;;;13.57;100.00;98312.13;5050019;28;20029;-74
2023/03/11 05:58:44;;;;;;;39.38;27.23;;;;;;;13.82;100.00;98355.56;5051387;28;20083;-75
2023/03/11 06:01:11;;;;;;;22.67;10.70;;;;;;;13.97;100.00;98393.75;5050242;28;20473;-73
2023/03/11 06:03:38;;;;;;;27.38;14.27;;;;;;;13.96;100.00;98390.38;5050463;28;20036;-73
2023/03/11 06:06:06;;;;;;;27.13;11.48;;;;;;;13.88;100.00;98377.31;5051676;28;20431;-75
2023/03/11 06:08:33;;;;;;;24.45;10.98;;;;;;;14.00;100.00;98375.66;5050061;28;20025;-75
2023/03/11 06:11:09;;;;;;;23.33;9.18;;;;;;;13.76;100.00;98324.50;5051679;28;20032;-75
2023/03/11 06:13:36;;;;;;;21.35;9.40;;;;;;;13.93;100.00;98362.47;5051498;28;20025;-74
2023/03/11 06:16:01;;;;;;;21.23;8.93;;;;;;;13.93;100.00;98367.59;5050879;28;20033;-74
2023/03/11 06:18:27;;;;;;;20.98;9.07;;;;;;;13.60;100.00;98334.91;5051207;28;20052;-74
2023/03/11 06:20:54;;;;;;;25.58;10.05;;;;;;;13.62;100.00;98327.16;5050500;28;20025;-76
2023/03/11 06:23:19;;;;;;;22.20;10.93;;;;;;;13.71;100.00;98323.97;5050557;28;20021;-74
2023/03/11 06:25:57;;;;;;;20.85;11.70;;;;;;;13.92;100.00;98363.41;5051026;28;20088;-75
2023/03/11 06:28:22;;;;;;;20.80;9.25;;;;;;;13.77;100.00;98314.16;5049250;28;20033;-74
2023/03/11 06:30:48;;;;;;;22.08;9.82;;;;;;;14.03;100.00;98368.59;5051252;28;20025;-74
2023/03/11 06:33:13;;;;;;;13.30;7.22;;;;;;;13.71;100.00;98317.13;5049347;28;20106;-73
2023/03/11 06:35:39;;;;;;;21.10;7.72;;;;;;;13.76;100.00;98306.63;5049319;28;20423;-74
2023/03/11 06:38:05;;;;;;;17.83;7.40;;;;;;;14.00;100.00;98314.34;5050975;28;20025;-75
2023/03/11 06:40:30;;;;;;;18.45;7.55;;;;;;;13.79;100.00;98302.09;5050238;28;20411;-73
2023/03/11 06:42:56;;;;;;;23.08;10.82;;;;;;;14.06;100.00;98329.25;5049924;28;20037;-75
2023/03/11 06:45:21;;;;;;;19.90;8.23;;;;;;;14.24;100.00;98310.91;5049412;28;20075;-74
2023/03/11 06:47:46;;;;;;;21.63;10.60;;;;;;;14.32;100.00;98318.88;5049675;28;20053;-73
2023/03/11 06:50:12;;;;;;;23.92;9.02;;;;;;;14.09;100.00;98280.47;5050911;28;20450;-74
2023/03/11 06:52:37;;;;;;;17.23;8.35;;;;;;;14.29;100.00;98306.31;5049716;28;20025;-73
2023/03/11 06:55:03;;;;;;;19.63;8.43;;;;;;;14.16;100.00;98263.81;5050557;28;20052;-74
2023/03/11 06:57:30;;;;;;;22.58;9.10;;;;;;;14.45;100.00;98299.22;5049531;28;20415;-73
2023/03/11 06:59:55;;;;;;;19.00;8.90;;;;;;;14.43;100.00;98244.81;5049733;28;20514;-73
2023/03/11 07:02:21;;;;;;;18.45;9.30;;;;;;;15.05;100.00;98273.53;5050598;28;20081;-74
2023/03/11 07:04:50;;;;;;;17.13;9.35;;;;;;;14.91;100.00;98230.22;5049287;28;20025;-73
2023/03/11 07:07:15;;;;;;;23.08;10.40;;;;;;;14.98;100.00;98216.03;5049830;28;20029;-73
2023/03/11 07:09:41;;;;;;;20.13;11.68;;;;;;;15.17;100.00;98210.38;5049807;28;20195;-74
2023/03/11 07:12:07;;;;;;;16.27;7.53;;;;;;;14.92;100.00;98249.75;5050019;28;20029;-74
2023/03/11 07:14:32;;;;;;;18.77;7.25;;;;;;;14.46;100.00;98208.00;5050169;28;20036;-74
2023/03/11 07:16:58;;;;;;;19.50;7.47;;;;;;;15.28;100.00;98270.06;5049871;28;20040;-74
2023/03/11 07:19:23;;;;;;;16.95;6.60;;;;;;;15.26;100.00;98256.56;5049693;28;20513;-74
2023/03/11 07:21:49;;;;;;;17.35;6.78;;;;;;;15.17;100.00;98205.25;5049412;28;20029;-74
2023/03/11 07:24:14;;;;;;;17.77;8.52;;;;;;;14.90;100.00;98222.63;5050768;28;20438;-73
2023/03/11 07:26:40;;;;;;;25.40;11.05;;;;;;;14.91;100.00;98189.28;5049233;28;20080;-74
2023/03/11 07:29:05;;;;;;;22.25;11.05;;;;;;;14.95;100.00;98174.50;5050356;28;20112;-73
2023/03/11 07:31:33;;;;;;;17.02;8.30;;;;;;;14.99;100.00;98189.53;5049373;28;20094;-75
2023/03/11 07:34:01;;;;;;;19.55;7.68;;;;;;;15.21;100.00;98216.88;5050552;28;20098;-73
2023/03/11 07:36:27;;;;;;;17.95;8.45;;;;;;;15.37;100.00;98222.47;5050744;28;20025;-74
2023/03/11 07:38:58;;;;;;;20.50;10.15;;;;;;;15.36;100.00;98169.63;5049624;28;20037;-74
2023/03/11 07:41:25;;;;;;;22.80;9.50;;;;;;;15.47;100.00;98203.75;5049101;28;20041;-75
2023/03/11 07:43:54;;;;;;;16.33;8.68;;;;;;;15.47;100.00;98101.31;5049109;28;20299;-74
2023/03/11 07:46:21;;;;;;;16.52;7.53;;;;;;;15.65;100.00;98145.16;5049054;28;20037;-74
2023/03/11 07:48:48;;;;;;;19.67;9.80;;;;;;;15.74;100.00;98134.22;5053409;28;20061;-75
2023/03/11 07:51:19;;;;;;;21.20;9.35;;;;;;;15.92;100.00;98153.28;5052762;28;20036;-74
2023/03/11 07:53:46;;;;;;;15.60;6.70;;;;;;;15.47;100.00;98151.72;5054250;28;20036;-75
2023/03/11 07:56:13;;;;;;;15.93;6.72;;;;;;;15.46;100.00;98120.19;5054092;28;20040;-74
2023/03/11 07:58:40;;;;;;;16.10;7.53;;;;;;;15.85;100.00;98156.41;5054440;28;20102;-76
2023/03/11 08:01:11;;;;;;;14.20;6.82;;;;;;;15.49;100.00;98106.31;5052841;28;20033;-75
2023/03/11 08:03:38;;;;;;;13.93;6.20;;;;;;;15.80;100.00;98110.66;5052856;28;20135;-75
2023/03/11 08:06:20;;;;;;;15.75;6.00;;;;;;;15.62;100.00;98109.56;5053629;28;20089;-75
2023/03/11 08:08:47;;;;;;;14.30;6.28;;;;;;;15.47;100.00;98098.75;5053677;28;20032;-75
2023/03/11 08:11:14;;;;;;;12.13;5.72;;;;;;;15.93;100.00;98107.94;5052535;28;20498;-75
2023/03/11 08:13:40;;;;;;;13.90;5.55;;;;;;;16.42;100.00;98093.59;5053482;28;20082;-75
2023/03/11 08:16:07;;;;;;;10.70;4.80;;;;;;;16.10;100.00;98062.06;5053720;28;20029;-76
2023/03/11 08:18:34;;;;;;;11.63;5.43;;;;;;;16.85;100.00;98126.00;5052170;28;20127;-75
2023/03/11 08:21:22;;;;;;;13.90;5.68;;;;;;;16.36;100.00;98075.34;5053132;28;20032;-75
2023/03/11 08:23:48;;;;;;;10.00;4.95;;;;;;;17.09;100.00;98121.41;5054017;28;20132;-75
2023/03/11 08:26:20;;;;;;;15.07;4.65;;;;;;;16.83;100.00;98094.53;5052683;28;20444;-75
2023/03/11 08:28:47;;;;;;;12.93;4.78;;;;;;;17.10;100.00;98123.81;5052455;28;20139;-76
2023/03/11 08:31:22;;;;;;;10.10;4.97;;;;;;;16.91;100.00;98131.47;5051941;28;20033;-75
2023/03/11 08:33:49;;;;;;;26.25;10.27;;;;;;;16.26;100.00;98084.72;5053693;28;20535;-76
2023/03/11 08:36:16;;;;;;;13.45;5.95;;;;;;;16.36;100.00;98144.59;5052265;28;20519;-76
2023/03/11 08:38:41;;;;;;;17.00;7.00;;;;;;;16.40;100.00;98095.47;5053113;28;20032;-76
2023/03/11 08:41:07;;;;;;;22.25;9.52;;;;;;;16.36;100.00;98076.13;5053445;28;20025;-76
2023/03/11 08:43:32;;;;;;;12.60;6.00;;;;;;;16.75;100.00;98125.97;5063745;28;20051;-77
2023/03/11 08:46:02;;;;;;;11.15;6.55;;;;;;;16.75;100.00;98071.25;5072538;28;20116;-77
2023/03/11 08:48:28;;;;;;;11.38;5.97;;;;;;;16.77;100.00;98136.91;5073214;28;20109;-77
2023/03/11 08:50:54;;;;;;;13.25;5.25;;;;;;;17.15;100.00;98124.25;5073451;28;20024;-77
2023/03/11 08:53:20;;;;;;;10.15;4.55;;;;;;;16.61;100.00;98126.28;5072305;28;20414;-76
2023/03/11 08:55:46;;;;;;;10.18;4.85;;;;;;;16.78;100.00;98112.88;5072625;28;20098;-77
2023/03/11 08:58:11;;;;;;;9.35;4.78;;;;;;;17.00;100.00;98128.09;5071512;28;20029;-76
2023/03/11 09:00:37;;;;;;;7.85;4.03;;;;;;;16.77;100.00;98136.09;5070997;28;20035;-77
2023/03/11 09:03:02;;;;;;;5.47;3.10;;;;;;;16.66;100.00;98128.47;5071857;28;20410;-76
2023/03/11 09:05:28;;;;;;;8.20;4.35;;;;;;;16.86;100.00;98120.75;5071388;28;20032;-77
2023/03/11 09:07:53;;;;;;;7.60;3.97;;;;;;;17.06;100.00;98122.47;5058018;28;20032;-76
2023/03/11 09:10:18;;;;;;;7.63;4.30;;;;;;;16.55;100.00;98059.25;5052633;28;20055;-76
2023/03/11 09:12:44;;;;;;;9.32;4.15;;;;;;;17.31;100.00;98113.50;5052954;28;20033;-76
2023/03/11 09:15:10;;;;;;;10.20;3.97;;;;;;;17.12;100.00;98036.38;5052709;28;20864;-75
2023/03/11 09:17:35;;;;;;;8.70;4.07;;;;;;;17.04;100.00;98065.28;5051082;28;20028;-77
2023/03/11 09:20:02;;;;;;;6.47;3.83;;;;;;;17.72;100.00;98109.97;5051858;28;20412;-76
2023/03/11 09:22:27;;;;;;;7.95;3.13;;;;;;;16.61;100.00;98077.53;5052564;28;20033;-76
2023/03/11 09:24:53;;;;;;;8.02;5.75;;;;;;;17.15;100.00;98070.31;5051040;28;20086;-76
2023/03/11 09:27:18;;;;;;;10.07;5.38;;;;;;;17.32;100.00;98095.38;5050451;28;20135;-77
2023/03/11 09:29:44;;;;;;;8.93;4.50;;;;;;;17.22;100.00;98091.97;5051055;28;20040;-77
2023/03/11 09:32:13;;;;;;;9.10;4.82;;;;;;;16.90;100.00;98052.81;5052537;28;20036;-77
2023/03/11 09:34:39;;;;;;;5.03;3.10;;;;;;;17.11;100.00;98098.97;5051288;28;20056;-77
2023/03/11 09:37:04;;;;;;;8.63;4.65;;;;;;;17.23;100.00;98091.00;5050943;28;20514;-77
2023/03/11 09:39:30;;;;;;;9.23;5.28;;;;;;;17.21;100.00;98054.38;5051689;28;20036;-77
2023/03/11 09:41:57;;;;;;;8.07;3.60;;;;;;;17.49;100.00;98085.44;5052346;28;20029;-77
2023/03/11 09:44:41;;;;;;;7.18;4.15;;;;;;;17.29;100.00;98097.41;5052269;28;20029;-77
2023/03/11 09:47:37;;;;;;;9.15;2.90;;;;;;;17.28;100.00;98101.72;5050998;28;20033;-78
2023/03/11 09:50:15;;;;;;;7.13;3.50;;;;;;;17.58;100.00;98094.91;5052477;28;20037;-77
2023/03/11 09:53:09;;;;;;;5.28;2.80;;;;;;;17.54;100.00;98091.00;5052404;28;20056;-78
2023/03/11 09:55:43;;;;;;;5.45;3.00;;;;;;;16.79;100.00;98052.09;5052202;28;20043;-77
2023/03/11 09:58:18;;;;;;;5.43;2.50;;;;;;;17.16;100.00;98045.44;5050914;28;20029;-78
2023/03/11 10:00:44;;;;;;;7.32;3.10;;;;;;;17.32;100.00;98082.53;5050810;28;20029;-77
2023/03/11 10:03:26;;;;;;;8.02;2.88;;;;;;;17.35;100.00;98066.84;5050212;28;20557;-77
2023/03/11 10:05:57;;;;;;;8.43;3.92;;;;;;;17.40;100.00;98034.81;5052256;28;20029;-77
2023/03/11 10:09:06;;;;;;;7.85;3.85;;;;;;;17.94;100.00;98074.53;5051195;28;20033;-76
2023/03/11 10:11:53;;;;;;;6.85;2.50;;;;;;;18.36;100.00;98072.44;5045426;28;20491;-79
2023/03/11 10:14:30;;;;;;;4.88;3.35;;;;;;;18.52;100.00;98059.03;5050476;28;20052;-76
2023/03/11 10:17:16;;;;;;;4.68;2.10;;;;;;;18.08;100.00;98048.38;5051651;28;20028;-77
2023/03/11 10:20:03;;;;;;;4.32;2.10;;;;;;;18.05;100.00;98014.41;5051316;28;20047;-75
2023/03/11 10:22:56;;;;;;;2.58;1.67;;;;;;;18.19;100.00;98061.09;5050633;28;20522;-77
2023/03/11 10:25:37;;;;;;;6.95;3.60;;;;;;;17.87;100.00;97967.22;5051705;28;20053;-77
2023/03/11 10:28:15;;;;;;;4.60;2.10;;;;;;;18.74;100.00;98054.34;5050120;28;20032;-77
2023/03/11 10:30:47;;;;;;;3.83;1.45;;;;;;;17.68;100.00;97982.66;5051517;28;20025;-77
2023/03/11 10:33:20;;;;;;;6.60;1.67;;;;;;;18.00;100.00;98037.16;5051642;28;20037;-76
2023/03/11 10:35:51;;;;;;;3.00;1.25;;;;;;;18.22;100.00;98065.16;5051228;28;20100;-77
2023/03/11 10:38:34;;;;;;;4.60;1.30;;;;;;;17.94;100.00;98053.16;5049542;28;20033;-77
2023/03/11 10:41:05;;;;;;;2.78;1.17;;;;;;;18.27;100.00;98090.47;5050757;28;20058;-77
2023/03/11 10:43:36;;;;;;;1.92;1.30;;;;;;;18.34;100.00;98096.69;5051193;28;20419;-77
2023/03/11 10:46:09;;;;;;;2.30;1.20;;;;;;;18.13;100.00;98114.84;5049940;28;20036;-77
2023/03/11 10:48:34;;;;;;;1.67;0.90;;;;;;;18.05;100.00;98117.28;5049768;28;20044;-77
2023/03/11 10:51:09;;;;;;;4.05;1.02;;;;;;;17.52;100.00;98072.31;5050874;28;20029;-77
2023/03/11 10:53:43;;;;;;;1.88;0.70;;;;;;;17.84;100.00;98132.03;5050451;28;20079;-77
2023/03/11 10:56:41;;;;;;;2.30;0.80;;;;;;;17.80;100.00;98123.78;5050391;28;20091;-76
2023/03/11 10:59:33;;;;;;;1.35;0.85;;;;;;;17.70;100.00;98132.41;5049659;28;20060;-77
2023/03/11 11:02:01;;;;;;;4.97;1.20;;;;;;;17.65;100.00;98132.78;5049616;28;20033;-77
2023/03/11 11:04:39;;;;;;;2.28;1.40;;;;;;;17.53;100.00;98125.34;5051148;28;20060;-77
2023/03/11 11:07:28;;;;;;;4.15;1.40;;;;;;;17.13;100.00;98046.53;5050287;28;20032;-77
2023/03/11 11:10:21;;;;;;;4.78;1.30;;;;;;;17.66;100.00;98119.03;5051330;28;20028;-76
2023/03/11 11:13:11;;;;;;;4.55;1.50;;;;;;;17.46;100.00;98077.97;5051290;28;20059;-77
2023/03/11 11:15:49;;;;;;;3.08;1.20;;;;;;;17.74;100.00;98123.50;5051395;28;20108;-76
2023/03/11 11:18:32;;;;;;;2.47;1.98;;;;;;;17.80;100.00;98136.63;5049479;28;20048;-77
2023/03/11 11:21:08;;;;;;;9.95;4.53;;;;;;;17.88;100.00;98130.81;5050776;28;20135;-77
2023/03/11 11:23:48;;;;;;;7.47;4.35;;;;;;;17.71;100.00;98126.31;5053580;28;20056;-77